sensor_id;sensor_type;location;lat;lon;timestamp;pressure;altitude;pressure_sealevel;temperature
72054;BMP280;59918;51.280;7.950;2024-03-23T00:52:00;97239.41;;;9.27
72054;BMP280;59918;51.280;7.950;2024-03-23T00:54:25;97234.72;;;9.24
72054;BMP280;59918;51.280;7.950;2024-03-23T00:56:51;97230.78;;;9.22
72054;BMP280;59918;51.280;7.950;2024-03-23T00:59:16;97225.88;;;9.20
72054;BMP280;59918;51.280;7.950;2024-03-23T01:01:41;97212.66;;;9.17
72054;BMP280;59918;51.280;7.950;2024-03-23T01:04:06;97209.94;;;9.12
72054;BMP280;59918;51.280;7.950;2024-03-23T01:06:32;97211.13;;;9.09
72054;BMP280;59918;51.280;7.950;2024-03-23T01:08:57;97209.56;;;9.09
72054;BMP280;59918;51.280;7.950;2024-03-23T01:11:22;97212.94;;;9.09
72054;BMP280;59918;51.280;7.950;2024-03-23T01:13:49;97204.66;;;9.07
72054;BMP280;59918;51.280;7.950;2024-03-23T01:16:15;97209.78;;;9.07
72054;BMP280;59918;51.280;7.950;2024-03-23T01:18:40;97204.06;;;9.05
72054;BMP280;59918;51.280;7.950;2024-03-23T01:21:05;97194.22;;;9.02
72054;BMP280;59918;51.280;7.950;2024-03-23T01:23:30;97201.56;;;8.99
72054;BMP280;59918;51.280;7.950;2024-03-23T01:25:56;97212.81;;;8.98
72054;BMP280;59918;51.280;7.950;2024-03-23T01:28:21;97207.88;;;8.96
72054;BMP280;59918;51.280;7.950;2024-03-23T01:30:47;97208.09;;;8.95
72054;BMP280;59918;51.280;7.950;2024-03-23T01:33:12;97200.81;;;8.92
72054;BMP280;59918;51.280;7.950;2024-03-23T01:35:38;97196.69;;;8.91
72054;BMP280;59918;51.280;7.950;2024-03-23T01:38:03;97195.53;;;8.87
72054;BMP280;59918;51.280;7.950;2024-03-23T01:40:29;97194.13;;;8.84
72054;BMP280;59918;51.280;7.950;2024-03-23T01:42:58;97194.56;;;8.81
72054;BMP280;59918;51.280;7.950;2024-03-23T01:45:27;97192.03;;;8.75
72054;BMP280;59918;51.280;7.950;2024-03-23T01:47:52;97189.47;;;8.75
72054;BMP280;59918;51.280;7.950;2024-03-23T01:50:17;97186.91;;;8.75
72054;BMP280;59918;51.280;7.950;2024-03-23T01:52:42;97176.06;;;8.73
72054;BMP280;59918;51.280;7.950;2024-03-23T01:55:08;97180.41;;;8.73
72054;BMP280;59918;51.280;7.950;2024-03-23T01:57:33;97184.97;;;8.71
72054;BMP280;59918;51.280;7.950;2024-03-23T01:59:59;97179.69;;;8.66
72054;BMP280;59918;51.280;7.950;2024-03-23T02:02:24;97181.66;;;8.64
72054;BMP280;59918;51.280;7.950;2024-03-23T02:04:49;97171.81;;;8.61
72054;BMP280;59918;51.280;7.950;2024-03-23T02:07:14;97163.97;;;8.56
72054;BMP280;59918;51.280;7.950;2024-03-23T02:09:39;97156.09;;;8.51
72054;BMP280;59918;51.280;7.950;2024-03-23T02:12:05;97162.25;;;8.50
72054;BMP280;59918;51.280;7.950;2024-03-23T02:14:30;97162.63;;;8.47
72054;BMP280;59918;51.280;7.950;2024-03-23T02:16:56;97155.38;;;8.44
72054;BMP280;59918;51.280;7.950;2024-03-23T02:19:21;97159.28;;;8.46
72054;BMP280;59918;51.280;7.950;2024-03-23T02:21:46;97154.16;;;8.46
72054;BMP280;59918;51.280;7.950;2024-03-23T02:24:11;97153.38;;;8.46
72054;BMP280;59918;51.280;7.950;2024-03-23T02:26:36;97156.16;;;8.44
72054;BMP280;59918;51.280;7.950;2024-03-23T02:29:02;97166.00;;;8.41
72054;BMP280;59918;51.280;7.950;2024-03-23T02:31:27;97147.09;;;8.42
72054;BMP280;59918;51.280;7.950;2024-03-23T02:33:52;97141.41;;;8.40
72054;BMP280;59918;51.280;7.950;2024-03-23T02:36:18;97145.13;;;8.37
72054;BMP280;59918;51.280;7.950;2024-03-23T02:38:43;97154.59;;;8.37
72054;BMP280;59918;51.280;7.950;2024-03-23T02:41:08;97151.25;;;8.37
72054;BMP280;59918;51.280;7.950;2024-03-23T02:43:33;97149.69;;;8.36
72054;BMP280;59918;51.280;7.950;2024-03-23T02:45:58;97136.09;;;8.35
72054;BMP280;59918;51.280;7.950;2024-03-23T02:48:24;97136.28;;;8.34
72054;BMP280;59918;51.280;7.950;2024-03-23T02:50:49;97142.22;;;8.34
72054;BMP280;59918;51.280;7.950;2024-03-23T02:53:14;97144.78;;;8.34
72054;BMP280;59918;51.280;7.950;2024-03-23T02:55:40;97139.66;;;8.34
72054;BMP280;59918;51.280;7.950;2024-03-23T02:58:05;97135.56;;;8.27
72054;BMP280;59918;51.280;7.950;2024-03-23T03:00:30;97138.34;;;8.19
72054;BMP280;59918;51.280;7.950;2024-03-23T03:02:55;97143.91;;;8.09
72054;BMP280;59918;51.280;7.950;2024-03-23T03:05:20;97142.50;;;8.07
72054;BMP280;59918;51.280;7.950;2024-03-23T03:07:46;97144.88;;;8.02
72054;BMP280;59918;51.280;7.950;2024-03-23T03:10:11;97151.59;;;7.97
72054;BMP280;59918;51.280;7.950;2024-03-23T03:12:37;97149.66;;;7.92
72054;BMP280;59918;51.280;7.950;2024-03-23T03:15:03;97155.56;;;7.86
72054;BMP280;59918;51.280;7.950;2024-03-23T03:17:28;97159.72;;;7.81
72054;BMP280;59918;51.280;7.950;2024-03-23T03:19:54;97162.13;;;7.76
72054;BMP280;59918;51.280;7.950;2024-03-23T03:22:19;97167.03;;;7.71
72054;BMP280;59918;51.280;7.950;2024-03-23T03:24:44;97165.09;;;7.66
72054;BMP280;59918;51.280;7.950;2024-03-23T03:27:09;97163.72;;;7.64
72054;BMP280;59918;51.280;7.950;2024-03-23T03:29:34;97162.34;;;7.62
72054;BMP280;59918;51.280;7.950;2024-03-23T03:32:00;97163.53;;;7.59
72054;BMP280;59918;51.280;7.950;2024-03-23T03:34:25;97167.47;;;7.55
72054;BMP280;59918;51.280;7.950;2024-03-23T03:36:50;97161.19;;;7.51
72054;BMP280;59918;51.280;7.950;2024-03-23T03:39:16;97159.63;;;7.50
72054;BMP280;59918;51.280;7.950;2024-03-23T03:41:41;97155.47;;;7.49
72054;BMP280;59918;51.280;7.950;2024-03-23T03:44:06;97165.91;;;7.48
72054;BMP280;59918;51.280;7.950;2024-03-23T03:46:31;97173.78;;;7.46
72054;BMP280;59918;51.280;7.950;2024-03-23T03:48:56;97166.31;;;7.38
72054;BMP280;59918;51.280;7.950;2024-03-23T03:51:22;97178.91;;;7.27
72054;BMP280;59918;51.280;7.950;2024-03-23T03:53:47;97168.72;;;7.21
72054;BMP280;59918;51.280;7.950;2024-03-23T03:56:15;97168.13;;;7.19
72054;BMP280;59918;51.280;7.950;2024-03-23T03:58:40;97171.25;;;7.14
72054;BMP280;59918;51.280;7.950;2024-03-23T04:01:05;97162.63;;;7.09
72054;BMP280;59918;51.280;7.950;2024-03-23T04:03:30;97146.69;;;7.07
72054;BMP280;59918;51.280;7.950;2024-03-23T04:05:56;97150.22;;;6.99
72054;BMP280;59918;51.280;7.950;2024-03-23T04:08:21;97158.47;;;7.01
72054;BMP280;59918;51.280;7.950;2024-03-23T04:10:47;97157.28;;;7.04
72054;BMP280;59918;51.280;7.950;2024-03-23T04:13:13;97159.06;;;7.03
72054;BMP280;59918;51.280;7.950;2024-03-23T04:15:38;97160.84;;;7.03
72054;BMP280;59918;51.280;7.950;2024-03-23T04:18:04;97166.75;;;6.97
72054;BMP280;59918;51.280;7.950;2024-03-23T04:20:29;97162.59;;;6.96
72054;BMP280;59918;51.280;7.950;2024-03-23T04:22:54;97171.03;;;6.96
72054;BMP280;59918;51.280;7.950;2024-03-23T04:25:20;97179.13;;;6.93
72054;BMP280;59918;51.280;7.950;2024-03-23T04:27:45;97170.63;;;6.93
72054;BMP280;59918;51.280;7.950;2024-03-23T04:30:11;97163.78;;;6.93
72054;BMP280;59918;51.280;7.950;2024-03-23T04:32:39;97167.53;;;6.97
72054;BMP280;59918;51.280;7.950;2024-03-23T04:35:05;97169.69;;;6.94
72054;BMP280;59918;51.280;7.950;2024-03-23T04:37:30;97175.38;;;6.90
72054;BMP280;59918;51.280;7.950;2024-03-23T04:39:55;97188.72;;;6.85
72054;BMP280;59918;51.280;7.950;2024-03-23T04:42:23;97202.09;;;6.81
72054;BMP280;59918;51.280;7.950;2024-03-23T04:44:48;97195.00;;;6.76
72054;BMP280;59918;51.280;7.950;2024-03-23T04:47:14;97192.25;;;6.71
72054;BMP280;59918;51.280;7.950;2024-03-23T04:49:39;97190.28;;;6.67
72054;BMP280;59918;51.280;7.950;2024-03-23T04:52:04;97189.50;;;6.66
72054;BMP280;59918;51.280;7.950;2024-03-23T04:54:30;97170.84;;;6.66
72054;BMP280;59918;51.280;7.950;2024-03-23T04:56:56;97172.56;;;6.65
72054;BMP280;59918;51.280;7.950;2024-03-23T04:59:21;97164.72;;;6.60
72054;BMP280;59918;51.280;7.950;2024-03-23T05:01:46;97173.75;;;6.63
72054;BMP280;59918;51.280;7.950;2024-03-23T05:04:11;97182.03;;;6.65
72054;BMP280;59918;51.280;7.950;2024-03-23T05:06:37;97178.69;;;6.64
72054;BMP280;59918;51.280;7.950;2024-03-23T05:09:02;97181.81;;;6.66
72054;BMP280;59918;51.280;7.950;2024-03-23T05:11:27;97186.34;;;6.64
72054;BMP280;59918;51.280;7.950;2024-03-23T05:13:52;97187.13;;;6.52
72054;BMP280;59918;51.280;7.950;2024-03-23T05:16:18;97184.34;;;6.47
72054;BMP280;59918;51.280;7.950;2024-03-23T05:18:43;97182.78;;;6.46
72054;BMP280;59918;51.280;7.950;2024-03-23T05:21:08;97181.97;;;6.46
72054;BMP280;59918;51.280;7.950;2024-03-23T05:23:33;97180.00;;;6.48
72054;BMP280;59918;51.280;7.950;2024-03-23T05:25:59;97178.63;;;6.45
72054;BMP280;59918;51.280;7.950;2024-03-23T05:28:24;97185.88;;;6.42
72054;BMP280;59918;51.280;7.950;2024-03-23T05:30:55;97195.91;;;6.37
72054;BMP280;59918;51.280;7.950;2024-03-23T05:33:21;97193.13;;;6.32
72054;BMP280;59918;51.280;7.950;2024-03-23T05:35:47;97181.53;;;6.29
72054;BMP280;59918;51.280;7.950;2024-03-23T05:38:12;97179.75;;;6.30
72054;BMP280;59918;51.280;7.950;2024-03-23T05:40:37;97174.47;;;6.25
72054;BMP280;59918;51.280;7.950;2024-03-23T05:43:03;97177.38;;;6.22
72054;BMP280;59918;51.280;7.950;2024-03-23T05:45:29;97173.25;;;6.21
72054;BMP280;59918;51.280;7.950;2024-03-23T05:47:54;97185.03;;;6.22
72054;BMP280;59918;51.280;7.950;2024-03-23T05:50:19;97183.84;;;6.18
72054;BMP280;59918;51.280;7.950;2024-03-23T05:52:45;97180.09;;;6.14
72054;BMP280;59918;51.280;7.950;2024-03-23T05:55:10;97184.78;;;6.11
72054;BMP280;59918;51.280;7.950;2024-03-23T05:57:35;97187.94;;;6.06
72054;BMP280;59918;51.280;7.950;2024-03-23T06:00:00;97190.66;;;6.05
72054;BMP280;59918;51.280;7.950;2024-03-23T06:02:26;97181.03;;;6.00
72054;BMP280;59918;51.280;7.950;2024-03-23T06:04:51;97179.47;;;5.99
72054;BMP280;59918;51.280;7.950;2024-03-23T06:07:16;97182.19;;;5.98
72054;BMP280;59918;51.280;7.950;2024-03-23T06:09:41;97180.06;;;6.01
72054;BMP280;59918;51.280;7.950;2024-03-23T06:12:07;97181.41;;;5.97
72054;BMP280;59918;51.280;7.950;2024-03-23T06:14:33;97186.88;;;5.94
72054;BMP280;59918;51.280;7.950;2024-03-23T06:16:59;97177.69;;;5.93
72054;BMP280;59918;51.280;7.950;2024-03-23T06:19:25;97175.13;;;5.93
72054;BMP280;59918;51.280;7.950;2024-03-23T06:21:50;97178.06;;;5.97
72054;BMP280;59918;51.280;7.950;2024-03-23T06:24:15;97178.28;;;5.95
72054;BMP280;59918;51.280;7.950;2024-03-23T06:26:41;97176.25;;;5.91
72054;BMP280;59918;51.280;7.950;2024-03-23T06:29:06;97175.13;;;5.93
72054;BMP280;59918;51.280;7.950;2024-03-23T06:31:31;97176.50;;;5.96
72054;BMP280;59918;51.280;7.950;2024-03-23T06:33:57;97178.88;;;5.97
72054;BMP280;59918;51.280;7.950;2024-03-23T06:36:22;97168.44;;;5.99
72054;BMP280;59918;51.280;7.950;2024-03-23T06:38:47;97182.97;;;5.98
72054;BMP280;59918;51.280;7.950;2024-03-23T06:41:12;97191.63;;;5.97
72054;BMP280;59918;51.280;7.950;2024-03-23T06:43:38;97198.69;;;5.95
72054;BMP280;59918;51.280;7.950;2024-03-23T06:46:03;97214.75;;;5.89
72054;BMP280;59918;51.280;7.950;2024-03-23T06:48:28;97215.50;;;5.83
72054;BMP280;59918;51.280;7.950;2024-03-23T06:50:57;97224.50;;;5.80
72054;BMP280;59918;51.280;7.950;2024-03-23T06:53:22;97219.72;;;5.70
72054;BMP280;59918;51.280;7.950;2024-03-23T06:55:52;97222.03;;;5.65
72054;BMP280;59918;51.280;7.950;2024-03-23T06:58:20;97220.03;;;5.61
72054;BMP280;59918;51.280;7.950;2024-03-23T07:00:45;97218.66;;;5.58
72054;BMP280;59918;51.280;7.950;2024-03-23T07:03:10;97213.31;;;5.53
72054;BMP280;59918;51.280;7.950;2024-03-23T07:05:35;97224.28;;;5.54
72054;BMP280;59918;51.280;7.950;2024-03-23T07:08:01;97219.56;;;5.51
72054;BMP280;59918;51.280;7.950;2024-03-23T07:10:26;97226.75;;;5.41
72054;BMP280;59918;51.280;7.950;2024-03-23T07:12:51;97231.56;;;5.30
72054;BMP280;59918;51.280;7.950;2024-03-23T07:15:16;97231.88;;;5.20
72054;BMP280;59918;51.280;7.950;2024-03-23T07:17:42;97233.44;;;5.15
72054;BMP280;59918;51.280;7.950;2024-03-23T07:20:07;97235.25;;;5.00
72054;BMP280;59918;51.280;7.950;2024-03-23T07:22:32;97246.63;;;4.83
72054;BMP280;59918;51.280;7.950;2024-03-23T07:25:01;97252.03;;;4.74
72054;BMP280;59918;51.280;7.950;2024-03-23T07:27:26;97242.59;;;4.68
72054;BMP280;59918;51.280;7.950;2024-03-23T07:29:52;97245.53;;;4.71
72054;BMP280;59918;51.280;7.950;2024-03-23T07:32:17;97255.00;;;4.77
72054;BMP280;59918;51.280;7.950;2024-03-23T07:34:42;97253.06;;;4.79
72054;BMP280;59918;51.280;7.950;2024-03-23T07:37:07;97249.63;;;4.87
72054;BMP280;59918;51.280;7.950;2024-03-23T07:39:33;97250.81;;;4.91
72054;BMP280;59918;51.280;7.950;2024-03-23T07:41:58;97243.63;;;4.94
72054;BMP280;59918;51.280;7.950;2024-03-23T07:44:23;97250.16;;;5.03
72054;BMP280;59918;51.280;7.950;2024-03-23T07:46:48;97247.84;;;5.08
72054;BMP280;59918;51.280;7.950;2024-03-23T07:49:14;97258.06;;;5.08
72054;BMP280;59918;51.280;7.950;2024-03-23T07:51:39;97249.06;;;5.12
72054;BMP280;59918;51.280;7.950;2024-03-23T07:54:06;97256.25;;;5.50
72054;BMP280;59918;51.280;7.950;2024-03-23T07:56:32;97246.75;;;5.65
72054;BMP280;59918;51.280;7.950;2024-03-23T07:58:57;97247.50;;;5.86
72054;BMP280;59918;51.280;7.950;2024-03-23T08:01:22;97253.13;;;6.49
72054;BMP280;59918;51.280;7.950;2024-03-23T08:03:49;97239.84;;;6.85
72054;BMP280;59918;51.280;7.950;2024-03-23T08:08:41;97244.00;;;6.99
72054;BMP280;59918;51.280;7.950;2024-03-23T08:11:07;97248.13;;;7.00
72054;BMP280;59918;51.280;7.950;2024-03-23T08:13:33;97251.66;;;6.92
72054;BMP280;59918;51.280;7.950;2024-03-23T08:16:00;97240.84;;;6.84
72054;BMP280;59918;51.280;7.950;2024-03-23T08:18:26;97246.53;;;6.92
72054;BMP280;59918;51.280;7.950;2024-03-23T08:20:58;97235.75;;;7.16
72054;BMP280;59918;51.280;7.950;2024-03-23T08:23:25;97237.16;;;7.44
72054;BMP280;59918;51.280;7.950;2024-03-23T08:25:50;97235.56;;;7.63
72054;BMP280;59918;51.280;7.950;2024-03-23T08:28:15;97235.91;;;7.79
72054;BMP280;59918;51.280;7.950;2024-03-23T08:30:40;97230.75;;;7.98
72054;BMP280;59918;51.280;7.950;2024-03-23T08:33:08;97234.31;;;7.91
72054;BMP280;59918;51.280;7.950;2024-03-23T08:35:35;97243.00;;;7.90
72054;BMP280;59918;51.280;7.950;2024-03-23T08:38:00;97232.13;;;8.13
72054;BMP280;59918;51.280;7.950;2024-03-23T08:40:25;97232.34;;;8.62
72054;BMP280;59918;51.280;7.950;2024-03-23T08:42:51;97224.47;;;8.94
72054;BMP280;59918;51.280;7.950;2024-03-23T08:45:16;97228.34;;;8.72
72054;BMP280;59918;51.280;7.950;2024-03-23T08:47:41;97220.81;;;8.77
72054;BMP280;59918;51.280;7.950;2024-03-23T08:50:07;97219.41;;;9.11
72054;BMP280;59918;51.280;7.950;2024-03-23T08:52:32;97219.53;;;9.47
72054;BMP280;59918;51.280;7.950;2024-03-23T08:54:58;97225.91;;;9.62
72054;BMP280;59918;51.280;7.950;2024-03-23T08:57:23;97214.72;;;9.99
72054;BMP280;59918;51.280;7.950;2024-03-23T08:59:48;97216.44;;;10.22
72054;BMP280;59918;51.280;7.950;2024-03-23T09:02:14;97229.91;;;9.76
72054;BMP280;59918;51.280;7.950;2024-03-23T09:04:39;97238.19;;;9.36
72054;BMP280;59918;51.280;7.950;2024-03-23T09:07:04;97232.56;;;9.45
72054;BMP280;59918;51.280;7.950;2024-03-23T09:09:39;97236.34;;;9.19
72054;BMP280;59918;51.280;7.950;2024-03-23T09:12:06;97246.91;;;8.98
72054;BMP280;59918;51.280;7.950;2024-03-23T09:14:33;97246.25;;;8.78
72054;BMP280;59918;51.280;7.950;2024-03-23T09:16:59;97246.63;;;8.82
72054;BMP280;59918;51.280;7.950;2024-03-23T09:19:27;97244.94;;;9.00
72054;BMP280;59918;51.280;7.950;2024-03-23T09:21:53;97227.66;;;9.44
72054;BMP280;59918;51.280;7.950;2024-03-23T09:24:18;97236.19;;;9.80
72054;BMP280;59918;51.280;7.950;2024-03-23T09:26:43;97234.25;;;10.18
72054;BMP280;59918;51.280;7.950;2024-03-23T09:29:08;97236.25;;;10.33
72054;BMP280;59918;51.280;7.950;2024-03-23T09:31:34;97229.56;;;9.97
72054;BMP280;59918;51.280;7.950;2024-03-23T09:33:59;97231.56;;;10.13
72054;BMP280;59918;51.280;7.950;2024-03-23T09:36:24;97230.72;;;10.65
72054;BMP280;59918;51.280;7.950;2024-03-23T09:38:49;97226.31;;;11.13
72054;BMP280;59918;51.280;7.950;2024-03-23T09:41:15;97235.38;;;11.56
72054;BMP280;59918;51.280;7.950;2024-03-23T09:43:40;97222.31;;;11.28
72054;BMP280;59918;51.280;7.950;2024-03-23T09:46:05;97232.22;;;11.13
72054;BMP280;59918;51.280;7.950;2024-03-23T09:48:31;97220.13;;;11.02
72054;BMP280;59918;51.280;7.950;2024-03-23T09:50:56;97217.41;;;11.38
72054;BMP280;59918;51.280;7.950;2024-03-23T09:53:22;97218.75;;;11.40
72054;BMP280;59918;51.280;7.950;2024-03-23T09:55:50;97217.22;;;12.46
72054;BMP280;59918;51.280;7.950;2024-03-23T09:58:17;97208.50;;;12.36
72054;BMP280;59918;51.280;7.950;2024-03-23T10:00:43;97213.19;;;11.55
72054;BMP280;59918;51.280;7.950;2024-03-23T10:03:09;97215.25;;;10.83
72054;BMP280;59918;51.280;7.950;2024-03-23T10:05:34;97256.69;;;10.11
72054;BMP280;59918;51.280;7.950;2024-03-23T10:10:44;97318.78;;;8.03
72054;BMP280;59918;51.280;7.950;2024-03-23T10:13:10;97337.81;;;7.05
72054;BMP280;59918;51.280;7.950;2024-03-23T10:15:36;97342.09;;;6.45
72054;BMP280;59918;51.280;7.950;2024-03-23T10:18:22;97339.72;;;6.10
72054;BMP280;59918;51.280;7.950;2024-03-23T10:23:31;97319.03;;;5.72
72054;BMP280;59918;51.280;7.950;2024-03-23T10:28:43;97283.78;;;5.82
72054;BMP280;59918;51.280;7.950;2024-03-23T10:31:15;97278.00;;;6.00
72054;BMP280;59918;51.280;7.950;2024-03-23T10:33:45;97268.03;;;6.45
72054;BMP280;59918;51.280;7.950;2024-03-23T10:36:11;97261.34;;;7.48
72054;BMP280;59918;51.280;7.950;2024-03-23T10:38:36;97254.91;;;9.63
72054;BMP280;59918;51.280;7.950;2024-03-23T10:41:02;97244.31;;;12.10
72054;BMP280;59918;51.280;7.950;2024-03-23T10:43:29;97232.38;;;13.91
72054;BMP280;59918;51.280;7.950;2024-03-23T10:45:55;97219.25;;;15.03
72054;BMP280;59918;51.280;7.950;2024-03-23T10:48:21;97223.09;;;15.53
72054;BMP280;59918;51.280;7.950;2024-03-23T10:50:46;97225.06;;;16.13
72054;BMP280;59918;51.280;7.950;2024-03-23T10:53:12;97216.84;;;17.07
72054;BMP280;59918;51.280;7.950;2024-03-23T10:55:39;97215.59;;;17.44
72054;BMP280;59918;51.280;7.950;2024-03-23T10:58:09;97211.41;;;17.77
72054;BMP280;59918;51.280;7.950;2024-03-23T11:00:36;97205.13;;;18.13
72054;BMP280;59918;51.280;7.950;2024-03-23T11:03:31;97209.34;;;17.40
72054;BMP280;59918;51.280;7.950;2024-03-23T11:05:57;97202.06;;;17.52
72054;BMP280;59918;51.280;7.950;2024-03-23T11:11:20;97194.09;;;18.50
72054;BMP280;59918;51.280;7.950;2024-03-23T11:13:49;97200.22;;;17.96
72054;BMP280;59918;51.280;7.950;2024-03-23T11:16:28;97207.19;;;16.82
72054;BMP280;59918;51.280;7.950;2024-03-23T11:18:54;97208.84;;;15.56
72054;BMP280;59918;51.280;7.950;2024-03-23T11:21:54;97197.94;;;17.36
72054;BMP280;59918;51.280;7.950;2024-03-23T11:24:20;97190.59;;;15.77
72054;BMP280;59918;51.280;7.950;2024-03-23T11:26:46;97209.41;;;13.94
72054;BMP280;59918;51.280;7.950;2024-03-23T11:29:13;97218.56;;;12.49
72054;BMP280;59918;51.280;7.950;2024-03-23T11:31:38;97221.16;;;11.53
72054;BMP280;59918;51.280;7.950;2024-03-23T11:34:07;97209.03;;;12.77
72054;BMP280;59918;51.280;7.950;2024-03-23T11:36:32;97184.59;;;15.71
72054;BMP280;59918;51.280;7.950;2024-03-23T11:38:57;97177.34;;;17.89
72054;BMP280;59918;51.280;7.950;2024-03-23T11:41:23;97169.56;;;19.04
72054;BMP280;59918;51.280;7.950;2024-03-23T11:43:48;97170.91;;;19.91
72054;BMP280;59918;51.280;7.950;2024-03-23T11:46:22;97166.72;;;20.59
72054;BMP280;59918;51.280;7.950;2024-03-23T11:48:50;97152.44;;;19.87
72054;BMP280;59918;51.280;7.950;2024-03-23T11:51:16;97189.81;;;18.11
72054;BMP280;59918;51.280;7.950;2024-03-23T11:53:42;97194.44;;;15.33
72054;BMP280;59918;51.280;7.950;2024-03-23T11:56:09;97231.88;;;12.96
72054;BMP280;59918;51.280;7.950;2024-03-23T11:58:35;97272.06;;;10.82
72054;BMP280;59918;51.280;7.950;2024-03-23T12:01:02;97307.13;;;9.26
72054;BMP280;59918;51.280;7.950;2024-03-23T12:03:28;97295.13;;;8.34
72054;BMP280;59918;51.280;7.950;2024-03-23T12:06:01;97289.88;;;7.71
72054;BMP280;59918;51.280;7.950;2024-03-23T12:08:31;97288.88;;;7.33
72054;BMP280;59918;51.280;7.950;2024-03-23T12:11:11;97285.56;;;7.52
72054;BMP280;59918;51.280;7.950;2024-03-23T12:13:36;97270.78;;;7.67
72054;BMP280;59918;51.280;7.950;2024-03-23T12:18:36;97252.88;;;7.67
72054;BMP280;59918;51.280;7.950;2024-03-23T12:21:02;97249.34;;;8.43
72054;BMP280;59918;51.280;7.950;2024-03-23T12:23:27;97244.47;;;9.09
72054;BMP280;59918;51.280;7.950;2024-03-23T12:25:52;97231.75;;;10.29
72054;BMP280;59918;51.280;7.950;2024-03-23T12:28:17;97215.63;;;13.45
72054;BMP280;59918;51.280;7.950;2024-03-23T12:30:43;97217.13;;;16.30
72054;BMP280;59918;51.280;7.950;2024-03-23T12:33:08;97206.25;;;17.62
72054;BMP280;59918;51.280;7.950;2024-03-23T12:35:33;97207.56;;;17.35
72054;BMP280;59918;51.280;7.950;2024-03-23T12:37:59;97223.66;;;17.57
72054;BMP280;59918;51.280;7.950;2024-03-23T12:40:24;97206.25;;;17.28
72054;BMP280;59918;51.280;7.950;2024-03-23T12:42:49;97204.34;;;18.17
72054;BMP280;59918;51.280;7.950;2024-03-23T12:45:15;97198.72;;;19.11
72054;BMP280;59918;51.280;7.950;2024-03-23T12:47:40;97204.97;;;19.76
72054;BMP280;59918;51.280;7.950;2024-03-23T12:50:06;97193.19;;;19.17
72054;BMP280;59918;51.280;7.950;2024-03-23T12:52:32;97211.00;;;18.48
72054;BMP280;59918;51.280;7.950;2024-03-23T12:54:57;97199.78;;;19.38
72054;BMP280;59918;51.280;7.950;2024-03-23T12:57:24;97213.56;;;19.43
72054;BMP280;59918;51.280;7.950;2024-03-23T12:59:49;97206.56;;;19.72
72054;BMP280;59918;51.280;7.950;2024-03-23T13:02:15;97212.94;;;20.59
72054;BMP280;59918;51.280;7.950;2024-03-23T13:04:40;97203.97;;;20.47
72054;BMP280;59918;51.280;7.950;2024-03-23T13:07:05;97213.59;;;21.11
72054;BMP280;59918;51.280;7.950;2024-03-23T13:09:30;97200.19;;;19.88
72054;BMP280;59918;51.280;7.950;2024-03-23T13:11:55;97222.78;;;16.92
72054;BMP280;59918;51.280;7.950;2024-03-23T13:14:21;97239.97;;;14.35
72054;BMP280;59918;51.280;7.950;2024-03-23T13:16:46;97278.38;;;12.12
72054;BMP280;59918;51.280;7.950;2024-03-23T13:19:11;97291.88;;;10.28
72054;BMP280;59918;51.280;7.950;2024-03-23T13:21:37;97296.50;;;9.23
72054;BMP280;59918;51.280;7.950;2024-03-23T13:24:02;97287.25;;;8.85
72054;BMP280;59918;51.280;7.950;2024-03-23T13:26:27;97274.38;;;9.52
72054;BMP280;59918;51.280;7.950;2024-03-23T13:28:52;97261.66;;;10.06
72054;BMP280;59918;51.280;7.950;2024-03-23T13:31:18;97264.59;;;11.95
72054;BMP280;59918;51.280;7.950;2024-03-23T13:33:43;97256.47;;;15.45
72054;BMP280;59918;51.280;7.950;2024-03-23T13:36:08;97253.53;;;17.50
72054;BMP280;59918;51.280;7.950;2024-03-23T13:38:33;97258.59;;;15.89
72054;BMP280;59918;51.280;7.950;2024-03-23T13:41:00;97260.97;;;13.52
72054;BMP280;59918;51.280;7.950;2024-03-23T13:43:27;97281.72;;;11.56
72054;BMP280;59918;51.280;7.950;2024-03-23T13:45:56;97271.44;;;10.15
72054;BMP280;59918;51.280;7.950;2024-03-23T13:48:26;97257.81;;;9.18
72054;BMP280;59918;51.280;7.950;2024-03-23T13:51:06;97259.50;;;9.06
72054;BMP280;59918;51.280;7.950;2024-03-23T13:53:33;97233.75;;;12.23
72054;BMP280;59918;51.280;7.950;2024-03-23T13:55:59;97221.50;;;15.83
72054;BMP280;59918;51.280;7.950;2024-03-23T13:58:24;97220.28;;;17.47
72054;BMP280;59918;51.280;7.950;2024-03-23T14:00:49;97210.41;;;17.49
72054;BMP280;59918;51.280;7.950;2024-03-23T14:03:14;97210.13;;;17.40
72054;BMP280;59918;51.280;7.950;2024-03-23T14:05:40;97208.25;;;16.96
72054;BMP280;59918;51.280;7.950;2024-03-23T14:08:09;97197.66;;;17.22
72054;BMP280;59918;51.280;7.950;2024-03-23T14:10:35;97202.84;;;17.42
72054;BMP280;59918;51.280;7.950;2024-03-23T14:13:00;97198.28;;;18.41
72054;BMP280;59918;51.280;7.950;2024-03-23T14:15:26;97211.16;;;17.44
72054;BMP280;59918;51.280;7.950;2024-03-23T14:17:52;97218.19;;;16.34
72054;BMP280;59918;51.280;7.950;2024-03-23T14:20:17;97224.19;;;14.79
72054;BMP280;59918;51.280;7.950;2024-03-23T14:22:43;97215.16;;;16.06
72054;BMP280;59918;51.280;7.950;2024-03-23T14:25:08;97216.19;;;16.50
72054;BMP280;59918;51.280;7.950;2024-03-23T14:27:33;97213.03;;;15.26
72054;BMP280;59918;51.280;7.950;2024-03-23T14:29:58;97217.50;;;14.35
72054;BMP280;59918;51.280;7.950;2024-03-23T14:32:24;97208.97;;;13.81
72054;BMP280;59918;51.280;7.950;2024-03-23T14:34:49;97205.88;;;13.63
72054;BMP280;59918;51.280;7.950;2024-03-23T14:37:14;97212.97;;;13.23
72054;BMP280;59918;51.280;7.950;2024-03-23T14:39:39;97201.50;;;12.87
72054;BMP280;59918;51.280;7.950;2024-03-23T14:42:05;97214.66;;;12.35
72054;BMP280;59918;51.280;7.950;2024-03-23T14:44:30;97205.34;;;11.50
72054;BMP280;59918;51.280;7.950;2024-03-23T14:46:55;97206.72;;;11.12
72054;BMP280;59918;51.280;7.950;2024-03-23T14:49:21;97208.72;;;11.73
72054;BMP280;59918;51.280;7.950;2024-03-23T14:51:46;97199.00;;;12.92
72054;BMP280;59918;51.280;7.950;2024-03-23T14:54:11;97178.88;;;16.91
72054;BMP280;59918;51.280;7.950;2024-03-23T14:56:37;97159.44;;;20.15
72054;BMP280;59918;51.280;7.950;2024-03-23T14:59:02;97153.94;;;22.34
72054;BMP280;59918;51.280;7.950;2024-03-23T15:01:27;97149.94;;;23.20
72054;BMP280;59918;51.280;7.950;2024-03-23T15:03:52;97154.75;;;24.38
72054;BMP280;59918;51.280;7.950;2024-03-23T15:06:18;97146.47;;;24.87
72054;BMP280;59918;51.280;7.950;2024-03-23T15:08:43;97137.53;;;26.29
72054;BMP280;59918;51.280;7.950;2024-03-23T15:11:08;97135.34;;;25.15
72054;BMP280;59918;51.280;7.950;2024-03-23T15:13:34;97146.34;;;23.89
72054;BMP280;59918;51.280;7.950;2024-03-23T15:16:02;97143.50;;;23.47